Antares — DFJQ — position and weather

sailwx.info

Track history (hours):
 
Tides and Currents Weather Stations Pressure Air Temp Water Temp Dewpoint Dewpoint Depression Visibility Wind Speed Wind Dir Waves Ship Positions

Antares

Last reported at 2014-Dec-21 08:34 UTC. Time now 2014-Dec-21 09:18 UTC.
Position N 54°22' E 010°07'.

Length 79 m; draft 4 m.

Type: Ship. MMSI: 218777000.

Date/timePositionNaut miles runAvg speedWind from/ knotsBaromVisibWave heightAir tempDewpointWater temp
2014-Dec-21 08:34N 54°22' E 010°07'2 1.7
2014-Dec-21 07:34N 54°22' E 010°10'1 0.5
2014-Dec-21 06:32N 54°23' E 010°11'0 0.0
2014-Dec-21 05:32N 54°23' E 010°11'0 0.0
2014-Dec-21 04:32N 54°23' E 010°11'0 0.0
2014-Dec-21 03:32N 54°23' E 010°11'0 0.0
2014-Dec-21 02:32N 54°23' E 010°11'0 0.0
2014-Dec-21 01:32N 54°23' E 010°11'0 0.0
2014-Dec-21 00:34N 54°23' E 010°11'4 3.5
2014-Dec-20 23:33N 54°26' E 010°13'12 9.4
2014-Dec-20 22:15N 54°33' E 010°31'6 9.0
2014-Dec-20 21:33N 54°35' E 010°41'9 9.1
2014-Dec-20 20:33N 54°43' E 010°50'12010.0
2014-Dec-20 08:33N 56°38' E 011°45'9 8.5
2014-Dec-20 07:33N 56°46' E 011°52'10 9.8
2014-Dec-20 06:34N 56°55' E 011°45'1010.1
2014-Dec-20 05:33N 57°05' E 011°39'1010.0
2014-Dec-20 04:33N 57°15' E 011°33'1010.4
2014-Dec-20 03:34N 57°24' E 011°27'9 8.7
2014-Dec-20 02:33N 57°32' E 011°36'8 7.7
2014-Dec-20 01:34N 57°39' E 011°42'6 5.9
2014-Dec-20 00:31N 57°41' E 011°53'0 0.0
2014-Dec-19 23:31N 57°41' E 011°53'0 0.0
2014-Dec-19 22:31N 57°41' E 011°53'0 0.0
2014-Dec-19 21:28N 57°41' E 011°53'0 0.0
2014-Dec-19 20:31N 57°41' E 011°53'0 0.0
2014-Dec-19 19:31N 57°41' E 011°53'0 0.0
2014-Dec-19 18:31N 57°41' E 011°53'0 0.0
2014-Dec-19 17:31N 57°41' E 011°53'0 0.0
2014-Dec-19 16:28N 57°41' E 011°53'0 0.0
2014-Dec-19 15:31N 57°41' E 011°53'0 0.0
2014-Dec-19 14:31N 57°41' E 011°53'0 0.0
2014-Dec-19 13:31N 57°41' E 011°53'0 0.0
2014-Dec-19 12:31N 57°41' E 011°53'0 0.0
2014-Dec-19 11:31N 57°41' E 011°53'0 0.0
2014-Dec-19 10:31N 57°41' E 011°53'0 0.0
2014-Dec-19 09:31N 57°41' E 011°53'0 0.0
2014-Dec-19 08:31N 57°41' E 011°53'0 0.0
2014-Dec-19 07:31N 57°41' E 011°53'0 0.0
2014-Dec-19 06:31N 57°41' E 011°53'0 0.0
2014-Dec-19 05:31N 57°41' E 011°53'0 0.0
2014-Dec-19 04:31N 57°41' E 011°53'0 0.0
2014-Dec-19 03:31N 57°41' E 011°53'0 0.0
2014-Dec-19 02:31N 57°41' E 011°53'0 0.0
2014-Dec-19 01:31N 57°41' E 011°53'0 0.0
2014-Dec-19 00:28N 57°41' E 011°53'0 0.0
2014-Dec-18 23:31N 57°41' E 011°53'0 0.0
2014-Dec-18 22:28N 57°41' E 011°53'0 0.0
2014-Dec-18 21:31N 57°41' E 011°53'0 0.1
2014-Dec-18 20:33N 57°41' E 011°52'7 7.1
2014-Dec-18 19:33N 57°37' E 011°41'5 5.1
2014-Dec-18 18:33N 57°33' E 011°38'0 0.0
2014-Dec-18 17:33N 57°33' E 011°38'0 0.1
2014-Dec-18 16:31N 57°33' E 011°38'7 7.5
2014-Dec-18 15:34N 57°26' E 011°34'1010.2
2014-Dec-18 14:33N 57°15' E 011°35'1010.1
2014-Dec-18 13:32N 57°06' E 011°42'1010.2
2014-Dec-18 12:34N 56°57' E 011°48'10 9.9
2014-Dec-18 11:34N 56°47' E 011°54'1010.1
2014-Dec-18 10:34N 56°37' E 011°58'1110.2
2014-Dec-18 09:27N 56°26' E 012°03'18 9.4
2014-Dec-18 07:34N 56°12' E 012°22'1010.2
2014-Dec-18 06:34N 56°06' E 012°36'1010.1
2014-Dec-18 05:33N 55°56' E 012°44'1010.2
2014-Dec-18 04:34N 55°46' E 012°42'1110.9
2014-Dec-18 03:34N 55°35' E 012°42'1110.9
2014-Dec-18 02:34N 55°24' E 012°41'1111.0
2014-Dec-18 01:34N 55°14' E 012°40'1010.2
2014-Dec-18 00:34N 55°03' E 012°43'185 6.5
2014-Dec-16 20:18N 54°57' E 018°05'6 8.4
2014-Dec-16 19:32N 54°57' E 018°17'9 8.8
2014-Dec-16 18:34N 54°57' E 018°31'9 9.5
2014-Dec-16 17:34N 54°56' E 018°48'10 9.5
2014-Dec-16 16:33N 54°53' E 019°04'9 9.1
2014-Dec-16 15:34N 54°50' E 019°18'9 9.1
2014-Dec-16 14:34N 54°46' E 019°33'11 9.6
2014-Dec-16 13:27N 54°41' E 019°48'9 0.4
2014-Dec-15 16:07N 54°39' E 020°03'6 8.8
2014-Dec-15 15:27N 54°38' E 019°53'5 5.5
2014-Dec-15 14:33N 54°41' E 019°46'7 6.8
2014-Dec-15 13:34N 54°45' E 019°36'9 9.0
2014-Dec-15 12:33N 54°48' E 019°22'9 9.2
2014-Dec-15 11:34N 54°51' E 019°07'9 9.4
2014-Dec-15 10:34N 54°54' E 018°51'10 9.5
2014-Dec-15 09:33N 54°58' E 018°35'9 9.3
2014-Dec-15 08:34N 54°59' E 018°19'10 9.5
2014-Dec-15 07:33N 54°58' E 018°03'109 9.8
2014-Dec-14 20:29N 54°39' E 014°57'28 9.2
2014-Dec-14 17:27N 54°38' E 014°09'63 8.9
2014-Dec-14 10:21N 54°35' E 012°20'810.0
2014-Dec-14 09:34N 54°27' E 012°15'11 9.9
2014-Dec-14 08:30N 54°18' E 012°06'8 8.2
2014-Dec-14 07:33N 54°10' E 012°06'1 0.6
2014-Dec-14 05:10N 54°09' E 012°08'0 0.0
2014-Dec-14 04:13N 54°09' E 012°08'0 0.0
2014-Dec-14 03:16N 54°09' E 012°08'0 0.0
2014-Dec-14 02:25N 54°09' E 012°08'0 0.0
2014-Dec-14 01:31N 54°09' E 012°08'0 0.0
2014-Dec-14 00:22N 54°09' E 012°08'0 0.0
2014-Dec-13 19:28N 54°09' E 012°08'0 0.0
2014-Dec-13 18:11N 54°09' E 012°08'0 0.0
2014-Dec-13 17:32N 54°09' E 012°08'0 0.0
2014-Dec-13 16:32N 54°09' E 012°08'0 0.0
2014-Dec-13 15:29N 54°09' E 012°08'0 0.0
2014-Dec-13 14:05N 54°09' E 012°08'0 0.0
2014-Dec-13 13:11N 54°09' E 012°08'0 0.0
2014-Dec-13 12:32N 54°09' E 012°08'3 3.0
2014-Dec-13 11:33N 54°12' E 012°05'10 9.7
2014-Dec-13 10:33N 54°20' E 011°58'5011.5
2014-Dec-13 06:14N 54°33' E 010°35'811.1
2014-Dec-13 05:32N 54°30' E 010°23'1010.6
2014-Dec-13 04:33N 54°23' E 010°11'2 1.8
2014-Dec-13 03:33N 54°22' E 010°08'7 7.3
2014-Dec-13 02:33N 54°20' E 009°56'8 7.4
2014-Dec-13 01:31N 54°19' E 009°43'7 7.2
2014-Dec-13 00:33N 54°14' E 009°36'8 8.2
2014-Dec-12 23:33N 54°10' E 009°24'8 7.8
2014-Dec-12 22:33N 54°03' E 009°18'7 6.8
2014-Dec-12 21:33N 53°56' E 009°13'4 3.9
2014-Dec-12 20:33N 53°54' E 009°09'5 5.4
2014-Dec-12 19:33N 53°52' E 009°17'10 9.9
2014-Dec-12 18:33N 53°44' E 009°27'8 8.2
2014-Dec-12 17:33N 53°37' E 009°34'7 7.2
2014-Dec-12 16:33N 53°34' E 009°45'7 7.1
2014-Dec-12 15:33N 53°32' E 009°56'1 1.4
2014-Dec-12 14:31N 53°30' E 009°58'0 0.0
2014-Dec-12 13:28N 53°30' E 009°58'0 0.0
2014-Dec-12 12:22N 53°30' E 009°58'0 0.0
2014-Dec-12 11:28N 53°30' E 009°58'0 0.0
2014-Dec-12 10:31N 53°30' E 009°58'0 0.0
2014-Dec-12 09:31N 53°30' E 009°58'0 0.0
2014-Dec-12 08:31N 53°30' E 009°58'0 0.0
2014-Dec-12 07:31N 53°30' E 009°58'0 0.1
2014-Dec-12 06:33N 53°30' E 009°57'8 7.8
2014-Dec-12 05:33N 53°34' E 009°45'1110.7
2014-Dec-12 04:33N 53°40' E 009°31'1111.5
2014-Dec-12 03:33N 53°50' E 009°21'1212.1
2014-Dec-12 02:34N 53°51' E 009°01'1110.7
2014-Dec-12 01:33N 53°52' E 008°43'0 0.2
2014-Dec-12 00:31N 53°52' E 008°43'0 0.0
2014-Dec-11 23:31N 53°52' E 008°43'0 0.0
2014-Dec-11 22:31N 53°52' E 008°43'0 0.0
2014-Dec-11 21:31N 53°52' E 008°43'0 0.0
2014-Dec-11 20:31N 53°52' E 008°43'0 0.0
2014-Dec-11 19:31N 53°52' E 008°43'0 0.0
2014-Dec-11 18:31N 53°52' E 008°43'0 0.0
2014-Dec-11 17:31N 53°52' E 008°43'0 0.0
2014-Dec-11 16:31N 53°52' E 008°43'0 0.0
2014-Dec-11 15:31N 53°52' E 008°43'0 0.0
2014-Dec-11 14:31N 53°52' E 008°43'0 0.0
2014-Dec-11 13:31N 53°52' E 008°43'0 0.0
2014-Dec-11 12:31N 53°52' E 008°43'0 0.0
2014-Dec-11 11:31N 53°52' E 008°43'0 0.0
2014-Dec-11 10:31N 53°52' E 008°43'0 0.0
2014-Dec-11 09:31N 53°52' E 008°43'  
Track history (hours):
 
Tides and Currents Weather Stations Pressure Air Temp Water Temp Dewpoint Dewpoint Depression Visibility Wind Speed Wind Dir Waves Ship Positions

Antares

Last reported at 2014-Dec-21 08:34 UTC. Time now 2014-Dec-21 09:18 UTC.
Position N 54°22' E 010°07'.

Length 79 m; draft 4 m.

Type: Ship. MMSI: 218777000.

Date/timePositionNaut miles runAvg speedWind from/ knotsBaromVisibWave heightAir tempDewpointWater temp
2014-Dec-21 08:34N 54°22' E 010°07'2 1.7
2014-Dec-21 07:34N 54°22' E 010°10'1 0.5
2014-Dec-21 06:32N 54°23' E 010°11'0 0.0
2014-Dec-21 05:32N 54°23' E 010°11'0 0.0
2014-Dec-21 04:32N 54°23' E 010°11'0 0.0
2014-Dec-21 03:32N 54°23' E 010°11'0 0.0
2014-Dec-21 02:32N 54°23' E 010°11'0 0.0
2014-Dec-21 01:32N 54°23' E 010°11'0 0.0
2014-Dec-21 00:34N 54°23' E 010°11'4 3.5
2014-Dec-20 23:33N 54°26' E 010°13'12 9.4
2014-Dec-20 22:15N 54°33' E 010°31'6 9.0
2014-Dec-20 21:33N 54°35' E 010°41'9 9.1
2014-Dec-20 20:33N 54°43' E 010°50'12010.0
2014-Dec-20 08:33N 56°38' E 011°45'9 8.5
2014-Dec-20 07:33N 56°46' E 011°52'10 9.8
2014-Dec-20 06:34N 56°55' E 011°45'1010.1
2014-Dec-20 05:33N 57°05' E 011°39'1010.0
2014-Dec-20 04:33N 57°15' E 011°33'1010.4
2014-Dec-20 03:34N 57°24' E 011°27'9 8.7
2014-Dec-20 02:33N 57°32' E 011°36'8 7.7
2014-Dec-20 01:34N 57°39' E 011°42'6 5.9
2014-Dec-20 00:31N 57°41' E 011°53'0 0.0
2014-Dec-19 23:31N 57°41' E 011°53'0 0.0
2014-Dec-19 22:31N 57°41' E 011°53'0 0.0
2014-Dec-19 21:28N 57°41' E 011°53'0 0.0
2014-Dec-19 20:31N 57°41' E 011°53'0 0.0
2014-Dec-19 19:31N 57°41' E 011°53'0 0.0
2014-Dec-19 18:31N 57°41' E 011°53'0 0.0
2014-Dec-19 17:31N 57°41' E 011°53'0 0.0
2014-Dec-19 16:28N 57°41' E 011°53'0 0.0
2014-Dec-19 15:31N 57°41' E 011°53'0 0.0
2014-Dec-19 14:31N 57°41' E 011°53'0 0.0
2014-Dec-19 13:31N 57°41' E 011°53'0 0.0
2014-Dec-19 12:31N 57°41' E 011°53'0 0.0
2014-Dec-19 11:31N 57°41' E 011°53'0 0.0
2014-Dec-19 10:31N 57°41' E 011°53'0 0.0
2014-Dec-19 09:31N 57°41' E 011°53'0 0.0
2014-Dec-19 08:31N 57°41' E 011°53'0 0.0
2014-Dec-19 07:31N 57°41' E 011°53'0 0.0
2014-Dec-19 06:31N 57°41' E 011°53'0 0.0
2014-Dec-19 05:31N 57°41' E 011°53'0 0.0
2014-Dec-19 04:31N 57°41' E 011°53'0 0.0
2014-Dec-19 03:31N 57°41' E 011°53'0 0.0
2014-Dec-19 02:31N 57°41' E 011°53'0 0.0
2014-Dec-19 01:31N 57°41' E 011°53'0 0.0
2014-Dec-19 00:28N 57°41' E 011°53'0 0.0
2014-Dec-18 23:31N 57°41' E 011°53'0 0.0
2014-Dec-18 22:28N 57°41' E 011°53'0 0.0
2014-Dec-18 21:31N 57°41' E 011°53'0 0.1
2014-Dec-18 20:33N 57°41' E 011°52'7 7.1
2014-Dec-18 19:33N 57°37' E 011°41'5 5.1
2014-Dec-18 18:33N 57°33' E 011°38'0 0.0
2014-Dec-18 17:33N 57°33' E 011°38'0 0.1
2014-Dec-18 16:31N 57°33' E 011°38'7 7.5
2014-Dec-18 15:34N 57°26' E 011°34'1010.2
2014-Dec-18 14:33N 57°15' E 011°35'1010.1
2014-Dec-18 13:32N 57°06' E 011°42'1010.2
2014-Dec-18 12:34N 56°57' E 011°48'10 9.9
2014-Dec-18 11:34N 56°47' E 011°54'1010.1
2014-Dec-18 10:34N 56°37' E 011°58'1110.2
2014-Dec-18 09:27N 56°26' E 012°03'18 9.4
2014-Dec-18 07:34N 56°12' E 012°22'1010.2
2014-Dec-18 06:34N 56°06' E 012°36'1010.1
2014-Dec-18 05:33N 55°56' E 012°44'1010.2
2014-Dec-18 04:34N 55°46' E 012°42'1110.9
2014-Dec-18 03:34N 55°35' E 012°42'1110.9
2014-Dec-18 02:34N 55°24' E 012°41'1111.0
2014-Dec-18 01:34N 55°14' E 012°40'1010.2
2014-Dec-18 00:34N 55°03' E 012°43'185 6.5
2014-Dec-16 20:18N 54°57' E 018°05'6 8.4
2014-Dec-16 19:32N 54°57' E 018°17'9 8.8
2014-Dec-16 18:34N 54°57' E 018°31'9 9.5
2014-Dec-16 17:34N 54°56' E 018°48'10 9.5
2014-Dec-16 16:33N 54°53' E 019°04'9 9.1
2014-Dec-16 15:34N 54°50' E 019°18'9 9.1
2014-Dec-16 14:34N 54°46' E 019°33'11 9.6
2014-Dec-16 13:27N 54°41' E 019°48'9 0.4
2014-Dec-15 16:07N 54°39' E 020°03'6 8.8
2014-Dec-15 15:27N 54°38' E 019°53'5 5.5
2014-Dec-15 14:33N 54°41' E 019°46'7 6.8
2014-Dec-15 13:34N 54°45' E 019°36'9 9.0
2014-Dec-15 12:33N 54°48' E 019°22'9 9.2
2014-Dec-15 11:34N 54°51' E 019°07'9 9.4
2014-Dec-15 10:34N 54°54' E 018°51'10 9.5
2014-Dec-15 09:33N 54°58' E 018°35'9 9.3
2014-Dec-15 08:34N 54°59' E 018°19'10 9.5
2014-Dec-15 07:33N 54°58' E 018°03'109 9.8
2014-Dec-14 20:29N 54°39' E 014°57'28 9.2
2014-Dec-14 17:27N 54°38' E 014°09'63 8.9
2014-Dec-14 10:21N 54°35' E 012°20'810.0
2014-Dec-14 09:34N 54°27' E 012°15'11 9.9
2014-Dec-14 08:30N 54°18' E 012°06'8 8.2
2014-Dec-14 07:33N 54°10' E 012°06'1 0.6
2014-Dec-14 05:10N 54°09' E 012°08'0 0.0
2014-Dec-14 04:13N 54°09' E 012°08'0 0.0
2014-Dec-14 03:16N 54°09' E 012°08'0 0.0
2014-Dec-14 02:25N 54°09' E 012°08'0 0.0
2014-Dec-14 01:31N 54°09' E 012°08'0 0.0
2014-Dec-14 00:22N 54°09' E 012°08'0 0.0
2014-Dec-13 19:28N 54°09' E 012°08'0 0.0
2014-Dec-13 18:11N 54°09' E 012°08'0 0.0
2014-Dec-13 17:32N 54°09' E 012°08'0 0.0
2014-Dec-13 16:32N 54°09' E 012°08'0 0.0
2014-Dec-13 15:29N 54°09' E 012°08'0 0.0
2014-Dec-13 14:05N 54°09' E 012°08'0 0.0
2014-Dec-13 13:11N 54°09' E 012°08'0 0.0
2014-Dec-13 12:32N 54°09' E 012°08'3 3.0
2014-Dec-13 11:33N 54°12' E 012°05'10 9.7
2014-Dec-13 10:33N 54°20' E 011°58'5011.5
2014-Dec-13 06:14N 54°33' E 010°35'811.1
2014-Dec-13 05:32N 54°30' E 010°23'1010.6
2014-Dec-13 04:33N 54°23' E 010°11'2 1.8
2014-Dec-13 03:33N 54°22' E 010°08'7 7.3
2014-Dec-13 02:33N 54°20' E 009°56'8 7.4
2014-Dec-13 01:31N 54°19' E 009°43'7 7.2
2014-Dec-13 00:33N 54°14' E 009°36'8 8.2
2014-Dec-12 23:33N 54°10' E 009°24'8 7.8
2014-Dec-12 22:33N 54°03' E 009°18'7 6.8
2014-Dec-12 21:33N 53°56' E 009°13'4 3.9
2014-Dec-12 20:33N 53°54' E 009°09'5 5.4
2014-Dec-12 19:33N 53°52' E 009°17'10 9.9
2014-Dec-12 18:33N 53°44' E 009°27'8 8.2
2014-Dec-12 17:33N 53°37' E 009°34'7 7.2
2014-Dec-12 16:33N 53°34' E 009°45'7 7.1
2014-Dec-12 15:33N 53°32' E 009°56'1 1.4
2014-Dec-12 14:31N 53°30' E 009°58'0 0.0
2014-Dec-12 13:28N 53°30' E 009°58'0 0.0
2014-Dec-12 12:22N 53°30' E 009°58'0 0.0
2014-Dec-12 11:28N 53°30' E 009°58'0 0.0
2014-Dec-12 10:31N 53°30' E 009°58'0 0.0
2014-Dec-12 09:31N 53°30' E 009°58'0 0.0
2014-Dec-12 08:31N 53°30' E 009°58'0 0.0
2014-Dec-12 07:31N 53°30' E 009°58'0 0.1
2014-Dec-12 06:33N 53°30' E 009°57'8 7.8
2014-Dec-12 05:33N 53°34' E 009°45'1110.7
2014-Dec-12 04:33N 53°40' E 009°31'1111.5
2014-Dec-12 03:33N 53°50' E 009°21'1212.1
2014-Dec-12 02:34N 53°51' E 009°01'1110.7
2014-Dec-12 01:33N 53°52' E 008°43'0 0.2
2014-Dec-12 00:31N 53°52' E 008°43'0 0.0
2014-Dec-11 23:31N 53°52' E 008°43'0 0.0
2014-Dec-11 22:31N 53°52' E 008°43'0 0.0
2014-Dec-11 21:31N 53°52' E 008°43'0 0.0
2014-Dec-11 20:31N 53°52' E 008°43'0 0.0
2014-Dec-11 19:31N 53°52' E 008°43'0 0.0
2014-Dec-11 18:31N 53°52' E 008°43'0 0.0
2014-Dec-11 17:31N 53°52' E 008°43'0 0.0
2014-Dec-11 16:31N 53°52' E 008°43'0 0.0
2014-Dec-11 15:31N 53°52' E 008°43'0 0.0
2014-Dec-11 14:31N 53°52' E 008°43'0 0.0
2014-Dec-11 13:31N 53°52' E 008°43'0 0.0
2014-Dec-11 12:31N 53°52' E 008°43'0 0.0
2014-Dec-11 11:31N 53°52' E 008°43'0 0.0
2014-Dec-11 10:31N 53°52' E 008°43'0 0.0
2014-Dec-11 09:31N 53°52' E 008°43'  

Dump ship's entire track history